ESMX

Växjö Kronoberg Airport

Växjö, Sweden
METAR ESMX 172050Z 22004KT 9999 OVC005 M03/M05 Q1018
Observed Flight Rules
Dec-17 @ 20:50 UTC (22 minutes ago) Instrument Flight Rules
Wind Visibility Clouds
220° at 4 knots 10,000+ meters
  • Overcast at 500' AGL
Temperatures Readings
Current -3°C / 27°F
Dewpoint -5°C / 23°F
Humidity 86%
Altimeter 30.06" Hg
Pressure 1018 hPa
Elevation 186
METAR ESMX 172050Z 22004KT 9999 OVC005 M03/M05 Q1018
Observed Flight Rules
Dec-17 @ 20:50 UTC
(22 minutes ago)
IFR
Wind Visibility
220° at 4 knots 10,000+ meters
Clouds
  • Overcast at 500' AGL
Temperature Dewpoint
-3°C / 27°F -5°C / 23°F
Humidity Altimeter Pressure
86% 30.06" Hg 1018 hPa